createdAt,value
2018-09-21T00:00:54.152Z,99643.45
2018-09-21T00:03:21.924Z,99643.84
2018-09-21T00:05:49.617Z,99636.08
2018-09-21T00:08:17.299Z,99637.94
2018-09-21T00:10:44.971Z,99639.97
2018-09-21T00:13:12.645Z,99638.16
2018-09-21T00:15:40.349Z,99636.55
2018-09-21T00:18:08.050Z,99639.39
2018-09-21T00:20:35.742Z,99643.75
2018-09-21T00:23:03.463Z,99638.61
2018-09-21T00:25:31.166Z,99631.95
2018-09-21T00:27:58.798Z,99631.12
2018-09-21T00:30:26.497Z,99636.17
2018-09-21T00:32:54.193Z,99632.82
2018-09-21T00:35:21.886Z,99638.14
2018-09-21T00:37:49.704Z,99631.02
2018-09-21T00:40:17.459Z,99625.53
2018-09-21T00:42:45.166Z,99618.55
2018-09-21T00:45:12.814Z,99613.37
2018-09-21T00:47:40.520Z,99615.39
2018-09-21T00:50:08.180Z,99612.23
2018-09-21T00:52:35.827Z,99610.09
2018-09-21T00:55:03.579Z,99612.06
2018-09-21T00:57:31.304Z,99606.03
2018-09-21T00:59:59.117Z,99603.38
2018-09-21T01:02:26.921Z,99603.56
2018-09-21T01:04:54.549Z,99603.77
2018-09-21T01:07:22.231Z,99594.96
2018-09-21T01:09:50.056Z,99596.45
2018-09-21T01:12:17.703Z,99595.98
2018-09-21T01:14:45.305Z,99595.58
2018-09-21T01:17:12.942Z,99601.12
2018-09-21T01:19:40.652Z,99590.77
2018-09-21T01:22:08.245Z,99595.14
2018-09-21T01:24:36.010Z,99599.36
2018-09-21T01:27:03.654Z,99588.20
2018-09-21T01:29:31.367Z,99590.08
2018-09-21T01:31:59.050Z,99591.08
2018-09-21T01:34:26.918Z,99588.59
2018-09-21T01:36:54.592Z,99589.77
2018-09-21T01:39:22.216Z,99585.27
2018-09-21T01:41:49.812Z,99579.03
2018-09-21T01:44:17.486Z,99580.98
2018-09-21T01:46:45.102Z,99577.53
2018-09-21T01:49:12.744Z,99574.77
2018-09-21T01:51:40.358Z,99575.59
2018-09-21T01:54:08.011Z,99578.41
2018-09-21T01:56:35.660Z,99569.33
2018-09-21T01:59:03.369Z,99573.10
2018-09-21T02:01:31.020Z,99566.45
2018-09-21T02:03:58.654Z,99569.95
2018-09-21T02:06:26.319Z,99567.78
2018-09-21T02:08:54.013Z,99565.62
2018-09-21T02:11:21.682Z,99566.45
2018-09-21T02:13:49.359Z,99564.13
2018-09-21T02:16:16.940Z,99565.50
2018-09-21T02:18:44.558Z,99561.36
2018-09-21T02:21:12.261Z,99555.09
2018-09-21T02:23:39.971Z,99551.32
2018-09-21T02:26:07.627Z,99556.97
2018-09-21T02:28:35.251Z,99553.81
2018-09-21T02:31:02.908Z,99553.38
2018-09-21T02:33:30.704Z,99551.41
2018-09-21T02:35:58.407Z,99548.27
2018-09-21T02:38:26.046Z,99548.88
2018-09-21T02:40:53.626Z,99545.02
2018-09-21T02:43:21.254Z,99535.55
2018-09-21T02:45:48.882Z,99541.86
2018-09-21T02:48:16.656Z,99539.42
2018-09-21T02:50:44.316Z,99538.59
2018-09-21T02:53:12.000Z,99536.39
2018-09-21T02:55:39.575Z,99539.75
2018-09-21T02:58:07.295Z,99533.44
2018-09-21T03:00:34.999Z,99534.39
2018-09-21T03:03:02.719Z,99532.12
2018-09-21T03:05:30.382Z,99525.48
2018-09-21T03:07:58.097Z,99524.02
2018-09-21T03:10:25.790Z,99525.23
2018-09-21T03:12:53.439Z,99521.94
2018-09-21T03:15:21.141Z,99518.66
2018-09-21T03:17:49.082Z,99519.86
2018-09-21T03:20:16.741Z,99509.20
2018-09-21T03:22:44.427Z,99514.29
2018-09-21T03:25:12.078Z,99507.64
2018-09-21T03:27:39.774Z,99500.95
2018-09-21T03:30:07.382Z,99499.11
2018-09-21T03:32:35.021Z,99493.80
2018-09-21T03:35:02.722Z,99498.19
2018-09-21T03:37:30.562Z,99488.44
2018-09-21T03:39:58.301Z,99499.19
2018-09-21T03:42:26.056Z,99495.03
2018-09-21T03:44:53.681Z,99491.83
2018-09-21T03:47:21.623Z,99497.85
2018-09-21T03:49:49.349Z,99494.21
2018-09-21T03:52:16.973Z,99497.37
2018-09-21T03:54:44.551Z,99491.43
2018-09-21T03:57:12.233Z,99492.97
2018-09-21T03:59:39.907Z,99487.66
2018-09-21T04:02:07.589Z,99490.48
2018-09-21T04:04:35.338Z,99483.73
2018-09-21T04:07:03.018Z,99489.72
2018-09-21T04:11:58.014Z,99472.30
2018-09-21T04:14:25.672Z,99478.31
2018-09-21T04:16:53.330Z,99480.53
2018-09-21T04:19:20.945Z,99474.73
2018-09-21T04:21:48.687Z,99472.61
2018-09-21T04:24:16.402Z,99468.09
2018-09-21T04:26:44.083Z,99474.39
2018-09-21T04:29:11.709Z,99466.30
2018-09-21T04:31:39.355Z,99468.13
2018-09-21T04:34:07.167Z,99462.88
2018-09-21T04:36:34.797Z,99456.39
2018-09-21T04:39:03.240Z,99459.01
2018-09-21T04:41:30.913Z,99454.40
2018-09-21T04:43:58.567Z,99447.22
2018-09-21T04:46:26.211Z,99442.74
2018-09-21T04:48:53.913Z,99442.45
2018-09-21T04:51:21.663Z,99438.10
2018-09-21T04:53:49.377Z,99438.92
2018-09-21T04:56:17.130Z,99438.80
2018-09-21T04:58:44.801Z,99437.97
2018-09-21T05:01:12.554Z,99448.59
2018-09-21T05:03:40.243Z,99449.72
2018-09-21T05:06:07.978Z,99436.76
2018-09-21T05:08:35.723Z,99434.90
2018-09-21T05:11:03.508Z,99427.92
2018-09-21T05:13:31.289Z,99437.17
2018-09-21T05:15:58.976Z,99423.67
2018-09-21T05:18:26.709Z,99421.97
2018-09-21T05:20:54.551Z,99422.45
2018-09-21T05:23:22.290Z,99423.80
2018-09-21T05:25:49.976Z,99422.58
2018-09-21T05:28:17.670Z,99422.45
2018-09-21T05:30:45.402Z,99429.59
2018-09-21T05:33:13.115Z,99425.72
2018-09-21T05:35:40.798Z,99422.23
2018-09-21T05:38:08.424Z,99420.00
2018-09-21T05:40:36.062Z,99424.95
2018-09-21T05:43:03.716Z,99424.95
2018-09-21T05:45:31.534Z,99426.72
2018-09-21T05:47:59.266Z,99423.27
2018-09-21T05:50:26.954Z,99423.51
2018-09-21T05:52:54.654Z,99423.56
2018-09-21T05:57:56.658Z,99422.63
2018-09-21T06:00:24.363Z,99419.66
2018-09-21T06:02:52.103Z,99419.69
2018-09-21T06:05:19.792Z,99417.09
2018-09-21T06:07:47.601Z,99417.70
2018-09-21T06:10:15.287Z,99417.45
2018-09-21T06:12:43.018Z,99407.33
2018-09-21T06:15:10.704Z,99408.27
2018-09-21T06:17:38.390Z,99410.86
2018-09-21T06:20:12.107Z,99403.77
2018-09-21T06:22:44.849Z,99406.31
2018-09-21T06:25:02.418Z,99402.61
2018-09-21T06:27:30.075Z,99406.57
2018-09-21T06:29:57.726Z,99407.31
2018-09-21T06:32:25.489Z,99407.23
2018-09-21T06:34:53.234Z,99406.86
2018-09-21T06:37:21.013Z,99405.46
2018-09-21T06:39:50.178Z,99410.03
2018-09-21T06:42:33.138Z,99400.00
2018-09-21T06:45:01.512Z,99401.04
2018-09-21T06:47:30.260Z,99403.48
2018-09-21T06:49:57.989Z,99399.98
2018-09-21T06:52:25.644Z,99396.27
2018-09-21T06:54:53.337Z,99404.92
2018-09-21T06:57:21.077Z,99399.79
2018-09-21T06:59:48.784Z,99388.80
2018-09-21T07:02:16.454Z,99387.16
2018-09-21T07:04:44.108Z,99380.59
2018-09-21T07:07:11.777Z,99376.66
2018-09-21T07:09:39.462Z,99375.02
2018-09-21T07:12:07.172Z,99367.58
2018-09-21T07:14:34.826Z,99371.69
2018-09-21T07:17:02.466Z,99369.50
2018-09-21T07:19:30.125Z,99372.58
2018-09-21T07:21:57.781Z,99370.47
2018-09-21T07:24:32.238Z,99375.36
2018-09-21T07:26:59.908Z,99375.67
2018-09-21T07:29:27.668Z,99378.41
2018-09-21T07:31:55.298Z,99383.89
2018-09-21T07:34:23.062Z,99374.39
2018-09-21T07:36:50.932Z,99367.48
2018-09-21T07:39:18.741Z,99369.56
2018-09-21T07:41:46.382Z,99373.20
2018-09-21T07:44:14.028Z,99359.35
2018-09-21T07:46:41.811Z,99369.13
2018-09-21T07:49:09.571Z,99362.38
2018-09-21T07:51:37.270Z,99364.62
2018-09-21T07:54:04.948Z,99353.94
2018-09-21T07:56:32.702Z,99354.36
2018-09-21T07:59:00.420Z,99353.03
2018-09-21T08:01:28.232Z,99350.19
2018-09-21T08:03:55.882Z,99353.16
2018-09-21T08:06:23.621Z,99339.16
2018-09-21T08:08:51.266Z,99326.48
2018-09-21T08:11:18.990Z,99331.77
2018-09-21T08:13:46.802Z,99334.34
2018-09-21T08:16:14.630Z,99323.55
2018-09-21T08:18:42.687Z,99318.09
2018-09-21T08:21:10.539Z,99318.94
2018-09-21T08:23:38.325Z,99312.26
2018-09-21T08:26:06.041Z,99310.33
2018-09-21T08:28:33.801Z,99309.68
2018-09-21T08:31:01.604Z,99311.00
2018-09-21T08:33:29.385Z,99312.66
2018-09-21T08:35:57.179Z,99308.69
2018-09-21T08:38:24.951Z,99300.25
2018-09-21T08:40:52.704Z,99306.02
2018-09-21T08:43:20.447Z,99293.55
2018-09-21T08:45:48.265Z,99298.94
2018-09-21T08:48:16.055Z,99288.84
2018-09-21T08:50:43.817Z,99295.42
2018-09-21T08:53:11.564Z,99287.90
2018-09-21T08:55:39.243Z,99286.55
2018-09-21T08:58:07.111Z,99286.02
2018-09-21T09:00:34.905Z,99279.95
2018-09-21T09:03:02.754Z,99272.41
2018-09-21T09:05:30.363Z,99278.14
2018-09-21T09:07:58.501Z,99271.77
2018-09-21T09:10:26.179Z,99273.46
2018-09-21T09:12:53.951Z,99268.13
2018-09-21T09:15:21.637Z,99253.42
2018-09-21T09:17:49.419Z,99247.47
2018-09-21T09:20:17.152Z,99242.09
2018-09-21T09:22:44.842Z,99239.67
2018-09-21T09:25:12.543Z,99232.95
2018-09-21T09:27:40.218Z,99243.16
2018-09-21T09:30:08.033Z,99228.69
2018-09-21T09:32:35.721Z,99224.22
2018-09-21T09:35:03.366Z,99226.07
2018-09-21T09:37:30.943Z,99224.59
2018-09-21T09:39:58.613Z,99215.89
2018-09-21T09:42:26.362Z,99213.18
2018-09-21T09:44:54.076Z,99211.06
2018-09-21T09:47:21.799Z,99208.16
2018-09-21T09:49:49.414Z,99195.33
2018-09-21T09:52:17.043Z,99202.02
2018-09-21T09:54:44.814Z,99189.02
2018-09-21T09:57:12.399Z,99191.86
2018-09-21T09:59:40.046Z,99187.61
2018-09-21T10:02:07.674Z,99184.44
2018-09-21T10:04:35.490Z,99172.91
2018-09-21T10:07:03.173Z,99170.80
2018-09-21T10:09:30.887Z,99164.42
2018-09-21T10:11:58.617Z,99162.41
2018-09-21T10:14:26.261Z,99149.45
2018-09-21T10:16:53.927Z,99149.23
2018-09-21T10:19:21.545Z,99154.47
2018-09-21T10:21:49.201Z,99149.06
2018-09-21T10:24:16.847Z,99140.56
2018-09-21T10:26:44.496Z,99153.89
2018-09-21T10:29:12.111Z,99130.75
2018-09-21T10:31:39.825Z,99138.16
2018-09-21T10:34:07.595Z,99129.72
2018-09-21T10:36:35.233Z,99137.20
2018-09-21T10:39:04.610Z,99137.91
2018-09-21T10:41:32.172Z,99128.75
2018-09-21T10:43:59.794Z,99127.97
2018-09-21T10:46:27.430Z,99118.44
2018-09-21T10:48:55.094Z,99124.89
2018-09-21T10:51:22.926Z,99118.19
2018-09-21T10:53:50.616Z,99114.38
2018-09-21T10:56:18.552Z,99105.18
2018-09-21T10:58:46.394Z,99097.27
2018-09-21T11:01:13.981Z,99095.24
2018-09-21T11:03:41.742Z,99096.50
2018-09-21T11:06:09.428Z,99087.70
2018-09-21T11:08:37.137Z,99088.29
2018-09-21T11:11:04.884Z,99090.83
2018-09-21T11:13:32.554Z,99091.38
2018-09-21T11:16:00.364Z,99092.02
2018-09-21T11:18:28.125Z,99095.20
2018-09-21T11:20:55.793Z,99091.17
2018-09-21T11:23:23.441Z,99088.45
2018-09-21T11:25:51.147Z,99088.61
2018-09-21T11:28:18.913Z,99074.27
2018-09-21T11:30:46.599Z,99079.53
2018-09-21T11:33:14.362Z,99074.97
2018-09-21T11:35:42.151Z,99078.82
2018-09-21T11:38:09.796Z,99063.89
2018-09-21T11:40:37.598Z,99066.83
2018-09-21T11:43:05.426Z,99068.34
2018-09-21T11:45:33.137Z,99052.44
2018-09-21T11:48:00.975Z,99055.25
2018-09-21T11:50:28.661Z,99056.17
2018-09-21T11:52:56.599Z,99044.00
2018-09-21T11:55:24.631Z,99044.42
2018-09-21T11:57:52.330Z,99026.88
2018-09-21T12:00:20.017Z,99037.58
2018-09-21T12:02:47.860Z,99039.51
2018-09-21T12:05:15.519Z,99036.27
2018-09-21T12:07:43.175Z,99028.89
2018-09-21T12:10:10.944Z,99023.89
2018-09-21T12:12:38.623Z,99015.77
2018-09-21T12:15:06.669Z,99012.38
2018-09-21T12:17:34.397Z,98995.42
2018-09-21T12:20:02.170Z,98991.48
2018-09-21T12:22:29.914Z,98996.42
2018-09-21T12:24:57.641Z,99006.24
2018-09-21T12:27:25.332Z,98995.42
2018-09-21T12:29:53.366Z,98980.68
2018-09-21T12:32:20.987Z,98966.23
2018-09-21T12:34:48.891Z,98959.27
2018-09-21T12:37:16.559Z,98955.05
2018-09-21T12:39:44.296Z,98983.90
2018-09-21T12:42:12.122Z,98959.66
2018-09-21T12:44:39.840Z,98954.68
2018-09-21T12:47:07.500Z,98952.00
2018-09-21T12:49:37.037Z,98956.86
2018-09-21T12:52:04.676Z,98946.14
2018-09-21T12:54:32.345Z,98943.80
2018-09-21T12:57:00.047Z,98945.53
2018-09-21T12:59:27.914Z,98950.64
2018-09-21T13:01:55.539Z,98949.93
2018-09-21T13:04:23.238Z,98934.42
2018-09-21T13:06:51.164Z,98941.62
2018-09-21T13:09:18.769Z,98952.89
2018-09-21T13:11:46.384Z,98934.01
2018-09-21T13:14:14.020Z,98936.52
2018-09-21T13:16:41.671Z,98932.19
2018-09-21T13:19:09.506Z,98926.48
2018-09-21T13:21:37.235Z,98924.23
2018-09-21T13:24:04.931Z,98914.44
2018-09-21T13:26:32.861Z,98924.50
2018-09-21T13:29:00.459Z,98921.11
2018-09-21T13:31:28.137Z,98911.84
2018-09-21T13:33:55.845Z,98930.05
2018-09-21T13:36:23.505Z,98908.91
2018-09-21T13:38:51.401Z,98900.04
2018-09-21T13:41:19.071Z,98900.30
2018-09-21T13:43:46.709Z,98898.96
2018-09-21T13:46:14.420Z,98913.16
2018-09-21T13:48:42.051Z,98905.84
2018-09-21T13:51:10.019Z,98897.58
2018-09-21T13:53:37.638Z,98916.30
2018-09-21T13:56:05.347Z,98901.34
2018-09-21T13:58:33.036Z,98898.59
2018-09-21T14:01:00.770Z,98893.19
2018-09-21T14:03:28.540Z,98900.14
2018-09-21T14:06:00.175Z,98900.45
2018-09-21T14:08:27.831Z,98908.49
2018-09-21T14:10:55.501Z,98894.38
2018-09-21T14:13:23.107Z,98900.91
2018-09-21T14:15:50.781Z,98889.91
2018-09-21T14:18:20.163Z,98887.47
2018-09-21T14:20:47.819Z,98888.88
2018-09-21T14:23:16.887Z,98903.08
2018-09-21T14:25:45.921Z,98889.53
2018-09-21T14:28:15.750Z,98882.83
2018-09-21T14:30:45.270Z,98878.78
2018-09-21T14:33:14.443Z,98870.64
2018-09-21T14:35:44.187Z,98869.86
2018-09-21T14:38:13.338Z,98863.09
2018-09-21T14:40:42.493Z,98857.67
2018-09-21T14:43:10.229Z,98851.97
2018-09-21T14:45:38.717Z,98856.06
2018-09-21T14:48:06.368Z,98845.27
2018-09-21T14:50:39.971Z,98849.55
2018-09-21T14:53:07.673Z,98850.92
2018-09-21T14:55:35.338Z,98836.86
2018-09-21T14:58:03.114Z,98836.30
2018-09-21T15:00:30.769Z,98823.30
2018-09-21T15:02:58.485Z,98821.95
2018-09-21T15:05:26.307Z,98828.46
2018-09-21T15:07:54.018Z,98829.23
2018-09-21T15:10:21.709Z,98833.02
2018-09-21T15:12:49.443Z,98836.20
2018-09-21T15:15:17.111Z,98828.84
2018-09-21T15:17:44.777Z,98830.65
2018-09-21T15:20:12.469Z,98833.05
2018-09-21T15:22:40.487Z,98839.52
2018-09-21T15:25:08.161Z,98848.07
2018-09-21T15:27:35.841Z,98848.79
2018-09-21T15:30:03.833Z,98861.33
2018-09-21T15:32:31.503Z,98869.52
2018-09-21T15:34:59.358Z,98874.84
2018-09-21T15:37:29.131Z,98921.98
2018-09-21T15:39:56.810Z,98995.02
2018-09-21T15:42:24.493Z,98946.06
2018-09-21T15:44:52.287Z,98934.86
2018-09-21T15:47:20.185Z,98946.56
2018-09-21T15:49:47.895Z,98912.23
2018-09-21T15:52:15.625Z,98902.37
2018-09-21T15:54:43.476Z,98898.22
2018-09-21T15:57:11.223Z,98883.59
2018-09-21T15:59:38.944Z,98888.01
2018-09-21T16:02:06.708Z,98889.31
2018-09-21T16:04:34.416Z,98903.21
2018-09-21T16:07:02.145Z,98883.33
2018-09-21T16:09:29.899Z,98891.30
2018-09-21T16:11:57.680Z,98906.47
2018-09-21T16:14:25.363Z,98909.13
2018-09-21T16:16:53.058Z,98912.93
2018-09-21T16:19:20.756Z,98911.28
2018-09-21T16:21:48.600Z,98910.22
2018-09-21T16:24:16.299Z,98913.19
2018-09-21T16:26:43.990Z,98928.63
2018-09-21T16:29:11.642Z,98935.13
2018-09-21T16:31:39.279Z,98990.44
2018-09-21T16:34:07.039Z,99021.42
2018-09-21T16:36:34.726Z,99067.42
2018-09-21T16:39:02.545Z,99076.96
2018-09-21T16:41:30.241Z,99100.83
2018-09-21T16:43:58.071Z,99098.77
2018-09-21T16:46:25.771Z,99100.85
2018-09-21T16:48:53.534Z,99140.78
2018-09-21T16:51:21.258Z,99113.88
2018-09-21T16:53:49.268Z,99149.88
2018-09-21T16:56:17.028Z,99149.69
2018-09-21T16:58:44.820Z,99167.61
2018-09-21T17:01:12.408Z,99195.56
2018-09-21T17:03:40.107Z,99222.27
2018-09-21T17:06:07.804Z,99235.17
2018-09-21T17:08:35.533Z,99247.16
2018-09-21T17:11:03.236Z,99249.65
2018-09-21T17:13:30.922Z,99238.66
2018-09-21T17:15:59.066Z,99253.01
2018-09-21T17:18:26.722Z,99249.16
2018-09-21T17:20:54.379Z,99257.33
2018-09-21T17:23:21.996Z,99271.60
2018-09-21T17:25:49.731Z,99273.75
2018-09-21T17:28:17.456Z,99272.13
2018-09-21T17:30:45.108Z,99270.81
2018-09-21T17:33:12.912Z,99284.96
2018-09-21T17:38:15.053Z,99298.51
2018-09-21T17:40:42.769Z,99311.47
2018-09-21T17:43:10.523Z,99326.17
2018-09-21T17:45:38.268Z,99322.72
2018-09-21T17:48:06.309Z,99334.76
2018-09-21T17:50:34.022Z,99350.77
2018-09-21T17:53:01.719Z,99351.95
2018-09-21T17:55:29.432Z,99361.35
2018-09-21T17:57:57.132Z,99369.48
2018-09-21T18:00:24.854Z,99383.56
2018-09-21T18:02:52.503Z,99398.78
2018-09-21T18:05:20.164Z,99412.97
2018-09-21T18:07:47.964Z,99418.44
2018-09-21T18:10:15.802Z,99420.88
2018-09-21T18:12:43.557Z,99435.55
2018-09-21T18:15:11.490Z,99430.47
2018-09-21T18:17:39.164Z,99380.03
2018-09-21T18:20:07.144Z,99443.50
2018-09-21T18:22:34.890Z,99448.53
2018-09-21T18:25:02.620Z,99457.84
2018-09-21T18:27:30.343Z,99460.30
2018-09-21T18:29:58.067Z,99471.70
2018-09-21T18:32:25.827Z,99475.87
2018-09-21T18:34:53.706Z,99473.73
2018-09-21T18:37:21.452Z,99482.17
2018-09-21T18:39:49.324Z,99481.34
2018-09-21T18:45:07.677Z,99483.11
2018-09-21T18:47:35.521Z,99494.02
2018-09-21T18:50:03.432Z,99513.43
2018-09-21T18:52:31.285Z,99524.73
2018-09-21T18:54:59.170Z,99536.25
2018-09-21T18:57:27.054Z,99540.22
2018-09-21T18:59:55.073Z,99532.81
2018-09-21T19:02:22.916Z,99516.56
2018-09-21T19:04:50.974Z,99510.03
2018-09-21T19:07:24.879Z,99521.25
2018-09-21T19:09:52.920Z,99547.02
2018-09-21T19:12:20.842Z,99547.89
2018-09-21T19:14:48.697Z,99553.30
2018-09-21T19:17:16.407Z,99555.34
2018-09-21T19:19:44.268Z,99539.62
2018-09-21T19:22:12.044Z,99552.80
2018-09-21T19:24:40.385Z,99540.70
2018-09-21T19:27:08.251Z,99547.09
2018-09-21T19:29:36.507Z,99535.98
2018-09-21T19:32:04.815Z,99540.22
2018-09-21T19:34:32.754Z,99559.34
2018-09-21T19:37:00.960Z,99573.09
2018-09-21T19:39:29.845Z,99602.94
2018-09-21T19:41:57.751Z,99615.95
2018-09-21T19:44:25.784Z,99618.92
2018-09-21T19:46:53.686Z,99619.41
2018-09-21T19:49:21.673Z,99607.09
2018-09-21T19:51:49.584Z,99614.14
2018-09-21T19:54:17.649Z,99606.84
2018-09-21T19:56:45.584Z,99587.16
2018-09-21T19:59:13.493Z,99590.23
2018-09-21T20:01:41.350Z,99614.91
2018-09-21T20:04:09.353Z,99600.17
2018-09-21T20:06:37.414Z,99600.66
2018-09-21T20:09:08.231Z,99601.77
2018-09-21T20:11:36.192Z,99604.66
2018-09-21T20:14:03.998Z,99611.03
2018-09-21T20:16:31.920Z,99598.53
2018-09-21T20:19:01.058Z,99603.30
2018-09-21T20:21:32.412Z,99607.42
2018-09-21T20:24:13.178Z,99609.38
2018-09-21T20:26:41.418Z,99614.14
2018-09-21T20:29:10.025Z,99618.82
2018-09-21T20:31:43.817Z,99623.00
2018-09-21T20:34:11.784Z,99627.71
2018-09-21T20:36:39.747Z,99628.78
2018-09-21T20:39:08.388Z,99636.23
2018-09-21T20:41:36.229Z,99640.80
2018-09-21T20:44:04.172Z,99643.19
2018-09-21T20:46:33.079Z,99655.00
2018-09-21T20:49:00.918Z,99660.80
2018-09-21T20:51:28.691Z,99660.70
2018-09-21T20:53:56.505Z,99651.52
2018-09-21T20:56:24.334Z,99671.13
2018-09-21T20:58:52.063Z,99680.28
2018-09-21T21:01:19.745Z,99684.67
2018-09-21T21:03:47.503Z,99696.83
2018-09-21T21:06:15.147Z,99709.75
2018-09-21T21:08:42.816Z,99713.77
2018-09-21T21:11:10.438Z,99714.44
2018-09-21T21:13:38.486Z,99719.95
2018-09-21T21:16:06.626Z,99719.92
2018-09-21T21:18:34.326Z,99730.91
2018-09-21T21:21:01.952Z,99722.31
2018-09-21T21:23:29.647Z,99734.88
2018-09-21T21:25:57.335Z,99741.33
2018-09-21T21:28:25.094Z,99746.14
2018-09-21T21:30:52.750Z,99736.69
2018-09-21T21:33:20.559Z,99739.17
2018-09-21T21:35:49.789Z,99745.52
2018-09-21T21:38:17.960Z,99764.00
2018-09-21T21:40:46.754Z,99760.00
2018-09-21T21:43:14.926Z,99762.09
2018-09-21T21:45:42.667Z,99764.00
2018-09-21T21:50:44.746Z,99763.38
2018-09-21T21:53:12.475Z,99764.98
2018-09-21T21:55:40.254Z,99776.06
2018-09-21T21:58:08.141Z,99762.44
2018-09-21T22:00:41.737Z,99778.66
2018-09-21T22:03:09.611Z,99795.48
2018-09-21T22:05:37.461Z,99787.41
2018-09-21T22:08:05.532Z,99780.95
2018-09-21T22:10:33.243Z,99793.16
2018-09-21T22:13:06.786Z,99774.41
2018-09-21T22:15:34.546Z,99791.23
2018-09-21T22:18:02.269Z,99802.83
2018-09-21T22:20:30.106Z,99814.54
2018-09-21T22:22:57.809Z,99817.09
2018-09-21T22:25:25.498Z,99816.16
2018-09-21T22:27:53.209Z,99820.25
2018-09-21T22:30:20.915Z,99807.94
2018-09-21T22:32:48.657Z,99825.80
2018-09-21T22:35:16.406Z,99833.11
2018-09-21T22:37:44.105Z,99833.55
2018-09-21T22:40:11.877Z,99844.49
2018-09-21T22:42:39.596Z,99845.59
2018-09-21T22:45:07.388Z,99844.67
2018-09-21T22:47:35.121Z,99849.67
2018-09-21T22:50:02.901Z,99837.98
2018-09-21T22:52:30.807Z,99848.01
2018-09-21T22:54:58.585Z,99848.45
2018-09-21T22:57:26.285Z,99859.22
2018-09-21T22:59:54.079Z,99865.47
2018-09-21T23:02:21.812Z,99866.92
2018-09-21T23:04:49.591Z,99859.58
2018-09-21T23:07:17.388Z,99861.53
2018-09-21T23:09:45.116Z,99867.24
2018-09-21T23:12:12.839Z,99869.51
2018-09-21T23:14:40.575Z,99875.80
2018-09-21T23:17:08.323Z,99858.04
2018-09-21T23:19:36.021Z,99857.25
2018-09-21T23:22:03.736Z,99878.63
2018-09-21T23:24:31.350Z,99876.87
2018-09-21T23:26:59.086Z,99877.42
2018-09-21T23:29:26.784Z,99874.33
2018-09-21T23:31:54.641Z,99872.71
2018-09-21T23:34:22.406Z,99887.37
2018-09-21T23:36:50.124Z,99884.45
2018-09-21T23:39:17.876Z,99882.37
2018-09-21T23:41:45.566Z,99891.73
2018-09-21T23:44:13.274Z,99897.48
2018-09-21T23:46:40.944Z,99893.76
2018-09-21T23:49:08.654Z,99893.53
2018-09-21T23:51:36.334Z,99900.26
2018-09-21T23:54:04.074Z,99902.19
2018-09-21T23:56:31.974Z,99901.58
2018-09-21T23:58:59.738Z,99907.36
